Time;durP1;ratioP1;P1;durP2;ratioP2;P2;SDS_P1;SDS_P2;PMS_P1;PMS_P2;Temp;Humidity;BMP_temperature;BMP_pressure;BME280_temperature;BME280_humidity;BME280_pressure;Samples;Min_cycle;Max_cycle;Signal;HPM_P1;HPM_P2
2023/10/04 00:01:37;;;;;;;7.18;2.58;;;;;;;14.14;75.78;102399.34;5045284;28;20083;-72
2023/10/04 00:04:03;;;;;;;6.70;2.05;;;;;;;14.08;76.13;102399.50;5048621;28;20036;-71
2023/10/04 00:06:31;;;;;;;6.32;2.70;;;;;;;14.00;76.42;102402.41;5034593;28;20025;-71
2023/10/04 00:08:56;;;;;;;11.15;2.20;;;;;;;13.99;76.64;102404.22;5053046;28;20521;-71
2023/10/04 00:11:21;;;;;;;8.35;2.60;;;;;;;13.98;76.48;102405.09;5033703;28;20021;-71
2023/10/04 00:13:47;;;;;;;5.05;1.95;;;;;;;13.99;76.50;102408.66;5051952;28;20538;-71
2023/10/04 00:16:13;;;;;;;6.55;2.10;;;;;;;14.00;76.67;102418.38;5040383;28;20024;-71
2023/10/04 00:18:38;;;;;;;9.18;2.40;;;;;;;13.98;76.44;102406.91;5043960;28;20467;-71
2023/10/04 00:21:06;;;;;;;8.48;1.88;;;;;;;13.96;76.69;102403.44;5045534;28;20040;-70
2023/10/04 00:23:31;;;;;;;6.20;2.75;;;;;;;13.96;76.66;102411.41;5043561;28;20063;-71
2023/10/04 00:25:57;;;;;;;13.05;2.33;;;;;;;13.93;76.81;102406.16;5042273;28;20107;-71
2023/10/04 00:28:22;;;;;;;6.82;2.17;;;;;;;14.00;76.83;102407.75;5047396;28;20043;-70
2023/10/04 00:30:47;;;;;;;8.82;2.30;;;;;;;14.08;76.88;102404.84;5038698;28;20024;-71
2023/10/04 00:33:13;;;;;;;8.68;2.25;;;;;;;14.15;76.53;102404.63;5044221;28;20083;-71
2023/10/04 00:35:40;;;;;;;10.70;2.30;;;;;;;14.17;76.50;102400.09;5043206;28;20024;-71
2023/10/04 00:38:08;;;;;;;7.90;2.05;;;;;;;14.19;76.31;102402.75;5047992;28;20416;-71
2023/10/04 00:40:33;;;;;;;8.35;2.10;;;;;;;14.22;76.47;102406.19;5040131;28;20040;-71
2023/10/04 00:43:01;;;;;;;7.40;2.33;;;;;;;14.26;75.88;102409.59;5038626;28;20048;-70
2023/10/04 00:45:28;;;;;;;11.57;2.03;;;;;;;14.25;76.10;102405.22;5047804;28;20051;-71
2023/10/04 00:47:57;;;;;;;10.32;2.20;;;;;;;14.26;76.48;102405.16;5040925;28;20550;-71
2023/10/04 00:50:34;;;;;;;6.93;2.40;;;;;;;14.18;76.76;102403.66;5038867;28;20181;-71
2023/10/04 00:53:12;;;;;;;6.63;2.10;;;;;;;14.17;76.44;102409.88;5036450;28;20061;-71
2023/10/04 00:55:40;;;;;;;8.70;1.90;;;;;;;14.08;77.08;102413.69;5041473;28;20029;-70
2023/10/04 00:58:07;;;;;;;6.18;2.38;;;;;;;14.09;77.57;102420.78;5043559;28;20458;-71
2023/10/04 01:00:33;;;;;;;10.85;2.08;;;;;;;14.09;76.93;102425.22;5035243;28;20540;-71
2023/10/04 01:02:59;;;;;;;9.50;2.90;;;;;;;14.10;77.06;102429.63;5040871;28;20516;-70
2023/10/04 01:05:26;;;;;;;7.80;2.10;;;;;;;14.07;77.21;102432.34;5040889;28;20033;-71
2023/10/04 01:07:53;;;;;;;5.82;2.15;;;;;;;14.01;77.41;102434.28;5041022;28;20117;-70
2023/10/04 01:10:21;;;;;;;6.60;2.80;;;;;;;14.03;77.67;102431.56;5034997;28;20025;-70
2023/10/04 01:12:49;;;;;;;5.13;2.05;;;;;;;14.03;77.20;102429.81;5039994;28;20041;-70
2023/10/04 01:17:49;;;;;;;6.30;1.65;;;;;;;13.99;77.10;102430.81;5035720;28;20037;-71
2023/10/04 01:20:14;;;;;;;9.20;2.20;;;;;;;13.97;77.69;102434.41;5037159;28;20047;-71
2023/10/04 01:22:41;;;;;;;7.43;2.67;;;;;;;13.92;77.59;102437.19;5037872;28;20836;-71
2023/10/04 01:25:11;;;;;;;7.45;2.33;;;;;;;13.91;77.56;102442.56;5039714;28;20021;-71
2023/10/04 01:27:38;;;;;;;6.05;2.53;;;;;;;13.91;77.96;102440.78;5032874;28;20504;-71
2023/10/04 01:30:05;;;;;;;8.38;2.70;;;;;;;13.85;78.06;102443.63;5054798;28;20126;-71
2023/10/04 01:32:31;;;;;;;6.30;3.20;;;;;;;13.84;77.84;102436.53;5041332;28;20476;-71
2023/10/04 01:34:56;;;;;;;9.60;2.80;;;;;;;13.83;77.84;102436.59;5045623;28;20033;-71
2023/10/04 01:37:22;;;;;;;7.72;2.45;;;;;;;13.82;78.21;102448.16;5047894;28;20025;-71
2023/10/04 01:39:47;;;;;;;11.68;2.75;;;;;;;13.84;78.10;102447.16;5040776;28;20499;-71
2023/10/04 01:42:12;;;;;;;6.00;2.70;;;;;;;13.89;78.02;102439.06;5044845;28;20103;-71
2023/10/04 01:44:37;;;;;;;7.15;2.75;;;;;;;13.87;78.21;102446.22;5046773;28;20487;-71
2023/10/04 01:47:03;;;;;;;5.10;2.17;;;;;;;13.96;77.66;102440.66;5037244;28;20029;-71
2023/10/04 01:49:28;;;;;;;9.50;2.78;;;;;;;13.95;77.83;102438.91;5037029;28;20033;-72
2023/10/04 01:51:54;;;;;;;6.82;2.42;;;;;;;13.91;77.75;102447.88;5040429;28;20066;-70
2023/10/04 01:54:19;;;;;;;10.18;2.83;;;;;;;13.89;77.55;102447.03;5047379;28;20464;-70
2023/10/04 01:56:44;;;;;;;6.88;2.53;;;;;;;13.90;77.99;102444.38;5049920;28;20024;-71
2023/10/04 01:59:13;;;;;;;4.82;2.15;;;;;;;13.93;78.37;102449.56;5046517;28;20024;-72
2023/10/04 02:01:40;;;;;;;9.85;2.85;;;;;;;14.08;76.89;102450.91;5045534;28;20064;-71
2023/10/04 02:04:06;;;;;;;13.63;3.33;;;;;;;14.05;77.48;102440.38;5060872;28;20103;-71
2023/10/04 02:06:33;;;;;;;7.45;2.33;;;;;;;14.11;76.76;102440.19;5041743;28;20027;-71
2023/10/04 02:09:00;;;;;;;6.13;2.70;;;;;;;14.11;76.94;102447.31;5040362;28;20052;-71
2023/10/04 02:11:25;;;;;;;7.50;2.28;;;;;;;14.10;77.08;102443.78;5051871;28;20060;-71
2023/10/04 02:13:52;;;;;;;8.50;2.50;;;;;;;14.06;76.85;102439.47;5041800;28;20060;-71
2023/10/04 02:16:21;;;;;;;9.90;2.55;;;;;;;14.03;77.58;102439.53;5045966;28;20020;-71
2023/10/04 02:18:48;;;;;;;14.57;2.58;;;;;;;14.03;77.34;102443.09;5045320;28;20036;-71
2023/10/04 02:21:13;;;;;;;6.38;2.50;;;;;;;14.00;77.39;102439.66;5039928;28;20045;-71
2023/10/04 02:23:39;;;;;;;8.40;2.38;;;;;;;13.98;77.92;102442.34;5043356;28;20516;-71
2023/10/04 02:26:06;;;;;;;6.95;3.00;;;;;;;13.99;77.41;102435.25;5046597;28;20021;-71
2023/10/04 02:28:33;;;;;;;10.07;2.78;;;;;;;13.99;77.51;102435.25;5042503;28;20013;-71
2023/10/04 02:31:02;;;;;;;5.00;2.03;;;;;;;13.98;77.58;102428.16;5038831;28;20025;-71
2023/10/04 02:33:32;;;;;;;11.82;2.60;;;;;;;14.01;77.79;102425.44;5047111;28;20116;-72
2023/10/04 02:36:00;;;;;;;7.03;2.45;;;;;;;14.06;77.03;102435.94;5035551;28;20021;-73
2023/10/04 02:38:26;;;;;;;7.97;2.70;;;;;;;14.01;77.22;102430.75;5040431;28;20033;-72
2023/10/04 02:40:54;;;;;;;6.80;2.30;;;;;;;13.93;77.81;102438.06;5040007;28;20029;-72
2023/10/04 02:43:21;;;;;;;7.25;2.58;;;;;;;13.90;77.81;102440.84;5039114;28;20029;-71
2023/10/04 02:45:52;;;;;;;9.13;2.70;;;;;;;13.91;77.75;102440.78;5040493;28;20166;-70
2023/10/04 02:48:18;;;;;;;8.43;2.13;;;;;;;13.94;77.98;102445.13;5043331;28;20521;-72
2023/10/04 02:50:44;;;;;;;8.75;2.75;;;;;;;13.93;77.73;102444.25;5041978;28;20036;-71
2023/10/04 02:53:13;;;;;;;10.32;2.42;;;;;;;13.90;78.29;102451.47;5047089;28;20035;-71
2023/10/04 02:55:39;;;;;;;7.28;2.30;;;;;;;13.88;77.95;102445.31;5042265;28;20561;-70
2023/10/04 02:58:06;;;;;;;10.73;3.47;;;;;;;13.90;77.44;102451.47;5037272;28;20057;-71
2023/10/04 03:00:33;;;;;;;7.25;2.25;;;;;;;13.93;78.21;102454.03;5038673;28;20068;-71
2023/10/04 03:02:59;;;;;;;9.23;2.42;;;;;;;13.91;77.84;102451.41;5043139;28;20078;-70
2023/10/04 03:05:28;;;;;;;5.85;2.45;;;;;;;13.94;77.70;102448.69;5038686;28;20041;-71
2023/10/04 03:07:54;;;;;;;11.02;2.50;;;;;;;13.95;77.51;102439.78;5037105;28;20455;-71
2023/10/04 03:10:25;;;;;;;6.03;2.42;;;;;;;13.94;77.88;102451.34;5040048;28;20500;-71
2023/10/04 03:13:00;;;;;;;6.43;2.63;;;;;;;13.92;77.45;102455.81;5038419;28;20017;-71
2023/10/04 03:15:28;;;;;;;6.38;2.03;;;;;;;13.90;77.80;102456.78;5032297;28;20337;-71
2023/10/04 03:17:54;;;;;;;8.32;2.70;;;;;;;13.87;77.85;102460.38;5037760;28;20040;-71
2023/10/04 03:20:23;;;;;;;7.70;2.45;;;;;;;13.84;77.87;102465.78;5041635;28;20037;-71
2023/10/04 03:22:55;;;;;;;8.40;2.40;;;;;;;13.80;78.13;102469.44;5036780;28;20021;-71
2023/10/04 03:25:21;;;;;;;8.35;2.20;;;;;;;13.79;78.17;102475.69;5039230;28;20028;-71
2023/10/04 03:27:46;;;;;;;6.60;2.53;;;;;;;13.75;78.60;102472.22;5039367;28;20021;-71
2023/10/04 03:30:14;;;;;;;7.28;2.47;;;;;;;13.69;77.89;102469.75;5035893;28;20021;-71
2023/10/04 03:32:44;;;;;;;5.97;2.25;;;;;;;13.97;77.06;102468.97;5042884;28;20049;-71
2023/10/04 03:35:14;;;;;;;10.50;3.88;;;;;;;13.71;78.08;102477.69;5046245;28;20047;-71
2023/10/04 03:37:47;;;;;;;8.20;2.78;;;;;;;13.77;77.87;102483.69;5037047;28;20053;-71
2023/10/04 03:40:14;;;;;;;4.93;2.40;;;;;;;13.53;78.53;102479.91;5039657;28;20039;-71
2023/10/04 03:42:41;;;;;;;8.80;2.47;;;;;;;13.50;78.81;102479.13;5039433;28;20538;-71
2023/10/04 03:45:07;;;;;;;7.10;2.33;;;;;;;13.44;78.78;102473.97;5039135;28;20079;-71
2023/10/04 03:47:33;;;;;;;7.88;2.40;;;;;;;13.42;78.81;102467.81;5037922;28;20029;-71
2023/10/04 03:49:58;;;;;;;7.60;2.50;;;;;;;13.66;77.45;102469.84;5035011;28;20028;-71
2023/10/04 03:52:25;;;;;;;8.75;2.85;;;;;;;13.52;78.44;102471.97;5043229;28;20025;-71
2023/10/04 03:54:50;;;;;;;8.60;2.42;;;;;;;13.33;79.15;102476.03;5039654;28;20028;-73
2023/10/04 03:57:16;;;;;;;12.60;3.33;;;;;;;13.27;79.02;102464.63;5041574;28;20575;-72
2023/10/04 03:59:44;;;;;;;8.18;2.58;;;;;;;13.19;79.69;102458.59;5039374;28;20505;-72
2023/10/04 04:02:11;;;;;;;9.52;2.65;;;;;;;13.14;79.61;102457.84;5038347;28;20107;-72
2023/10/04 04:04:36;;;;;;;8.88;2.45;;;;;;;13.12;79.83;102457.03;5041004;28;20025;-72
2023/10/04 04:07:02;;;;;;;6.82;2.67;;;;;;;13.12;79.78;102464.13;5040682;28;20434;-73
2023/10/04 04:09:28;;;;;;;10.13;2.78;;;;;;;13.05;80.03;102460.72;5033562;28;20114;-72
2023/10/04 04:11:53;;;;;;;8.55;2.63;;;;;;;12.97;80.17;102468.03;5023874;28;20063;-72
2023/10/04 04:14:18;;;;;;;9.43;2.92;;;;;;;12.87;80.83;102467.38;5041992;28;20059;-73
2023/10/04 04:16:44;;;;;;;6.90;2.60;;;;;;;12.83;80.88;102473.66;5048442;28;20039;-72
2023/10/04 04:19:09;;;;;;;9.25;3.03;;;;;;;12.79;81.46;102466.69;5037836;28;20025;-72
2023/10/04 04:21:34;;;;;;;10.32;2.60;;;;;;;12.84;81.05;102461.28;5044625;28;20033;-73
2023/10/04 04:24:00;;;;;;;6.60;2.75;;;;;;;12.84;80.99;102458.63;5050477;28;20040;-73
2023/10/04 04:26:27;;;;;;;11.85;3.55;;;;;;;12.77;81.36;102449.91;5049536;28;20027;-72
2023/10/04 04:28:53;;;;;;;13.10;2.92;;;;;;;12.77;81.61;102457.88;5046592;28;20503;-72
2023/10/04 04:31:20;;;;;;;10.07;2.90;;;;;;;12.80;80.83;102455.16;5027896;28;20025;-72
2023/10/04 04:33:45;;;;;;;7.72;3.00;;;;;;;12.79;80.91;102456.06;5040698;28;20033;-72
2023/10/04 04:36:19;;;;;;;10.27;3.20;;;;;;;12.82;81.07;102452.44;5036558;28;20615;-72
2023/10/04 04:38:47;;;;;;;8.98;2.72;;;;;;;12.74;81.19;102445.56;5035669;28;20032;-72
2023/10/04 04:41:13;;;;;;;8.75;2.88;;;;;;;12.79;81.22;102453.41;5037732;28;20358;-72
2023/10/04 04:43:39;;;;;;;6.18;2.80;;;;;;;12.88;80.94;102457.63;5049292;28;20077;-72
2023/10/04 04:46:12;;;;;;;12.98;3.50;;;;;;;12.85;80.88;102463.00;5020311;28;20555;-72
2023/10/04 04:48:38;;;;;;;7.72;2.75;;;;;;;12.82;80.62;102452.44;5044351;28;20025;-72
2023/10/04 04:51:25;;;;;;;9.65;2.65;;;;;;;12.78;80.68;102446.38;5040526;28;20079;-72
2023/10/04 04:53:50;;;;;;;8.85;2.60;;;;;;;12.72;80.52;102441.19;5034117;28;20049;-72
2023/10/04 04:56:15;;;;;;;10.85;3.28;;;;;;;12.68;81.44;102450.13;5037905;28;20046;-72
2023/10/04 04:58:44;;;;;;;10.15;3.22;;;;;;;12.57;81.61;102449.50;5033277;28;20108;-72
2023/10/04 05:01:11;;;;;;;11.07;2.95;;;;;;;12.49;81.71;102447.88;5033031;28;20033;-72
2023/10/04 05:03:41;;;;;;;10.15;3.05;;;;;;;12.45;82.06;102451.53;5039698;28;20029;-73
2023/10/04 05:06:07;;;;;;;9.73;3.30;;;;;;;12.51;81.95;102447.88;5036727;28;20037;-71
2023/10/04 05:08:36;;;;;;;10.57;3.42;;;;;;;12.50;82.35;102454.09;5038636;28;20040;-71
2023/10/04 05:11:07;;;;;;;8.55;2.35;;;;;;;12.49;82.29;102465.59;5036836;28;20037;-71
2023/10/04 05:13:33;;;;;;;9.27;3.08;;;;;;;12.47;81.84;102470.94;5033429;28;20458;-71
2023/10/04 05:15:59;;;;;;;12.10;3.53;;;;;;;12.46;81.99;102478.94;5040488;28;20349;-71
2023/10/04 05:18:26;;;;;;;10.95;3.65;;;;;;;12.44;81.65;102486.91;5044113;28;20306;-71
2023/10/04 05:20:55;;;;;;;8.52;2.55;;;;;;;12.39;81.91;102495.88;5052955;28;20427;-71
2023/10/04 05:23:23;;;;;;;11.68;3.47;;;;;;;12.35;82.25;102508.31;5048063;28;20431;-71
2023/10/04 05:25:49;;;;;;;8.77;2.63;;;;;;;12.41;81.75;102504.69;5046313;28;20025;-71
2023/10/04 05:28:14;;;;;;;7.60;2.75;;;;;;;12.37;82.18;102503.88;5042869;28;20368;-71
2023/10/04 05:30:43;;;;;;;8.38;2.92;;;;;;;12.36;82.01;102495.97;5044763;28;20032;-71
2023/10/04 05:33:09;;;;;;;8.10;3.10;;;;;;;12.31;82.36;102493.41;5050683;28;20047;-71
2023/10/04 05:35:37;;;;;;;17.27;3.55;;;;;;;12.22;82.97;102494.47;5048653;28;20025;-71
2023/10/04 05:38:07;;;;;;;17.15;3.20;;;;;;;12.17;82.97;102496.34;5051108;28;20083;-71
2023/10/04 05:40:35;;;;;;;8.55;2.92;;;;;;;12.22;82.61;102494.47;5043575;28;20966;-71
2023/10/04 05:43:01;;;;;;;11.13;3.00;;;;;;;12.19;82.85;102497.16;5055444;28;20026;-71
2023/10/04 05:45:26;;;;;;;8.32;3.20;;;;;;;12.28;82.40;102506.72;5055554;28;20035;-71
2023/10/04 05:47:52;;;;;;;11.10;2.80;;;;;;;12.38;82.34;102515.34;5045057;28;20032;-71
2023/10/04 05:50:20;;;;;;;7.97;2.72;;;;;;;12.39;82.12;102511.78;5053513;28;20033;-71
2023/10/04 05:52:50;;;;;;;11.35;2.90;;;;;;;12.27;82.40;102518.25;5044270;28;20029;-71
2023/10/04 05:55:22;;;;;;;8.43;2.78;;;;;;;12.22;82.85;102518.31;5048185;28;20416;-71
2023/10/04 05:57:50;;;;;;;10.75;2.88;;;;;;;12.33;81.91;102519.88;5045199;28;20037;-71
2023/10/04 06:03:01;;;;;;;10.35;3.38;;;;;;;12.30;82.45;102527.88;5048956;28;20417;-71
2023/10/04 06:05:28;;;;;;;17.45;3.47;;;;;;;12.31;82.47;102524.31;5049254;28;20032;-71
2023/10/04 06:07:54;;;;;;;7.97;3.17;;;;;;;12.28;82.53;102537.66;5039425;28;20040;-71
2023/10/04 06:10:21;;;;;;;6.78;2.42;;;;;;;12.34;82.55;102526.94;5043888;28;20485;-71
2023/10/04 06:12:47;;;;;;;7.10;2.92;;;;;;;12.34;82.74;102533.09;5038670;28;20480;-71
2023/10/04 06:15:16;;;;;;;8.68;3.30;;;;;;;12.24;82.88;102528.91;5050711;28;20029;-72
2023/10/04 06:17:42;;;;;;;12.75;3.58;;;;;;;12.29;82.64;102536.75;5041672;28;20028;-72
2023/10/04 06:23:06;;;;;;;9.98;2.95;;;;;;;12.33;82.58;102546.41;5044895;28;20235;-73
2023/10/04 06:25:39;;;;;;;7.40;2.85;;;;;;;12.40;82.26;102540.06;5039809;28;20480;-74
2023/10/04 06:28:05;;;;;;;6.75;2.63;;;;;;;12.52;81.87;102545.13;5043523;28;20091;-72
2023/10/04 06:30:32;;;;;;;9.60;3.03;;;;;;;12.56;82.29;102544.16;5046421;28;20135;-71
2023/10/04 06:32:59;;;;;;;11.57;3.08;;;;;;;12.57;81.80;102548.53;5048907;28;20048;-71
2023/10/04 06:35:26;;;;;;;11.15;3.30;;;;;;;12.61;81.86;102552.88;5048545;28;20039;-71
2023/10/04 06:37:54;;;;;;;6.68;2.75;;;;;;;12.64;81.78;102552.81;5036528;28;20918;-69
2023/10/04 06:40:20;;;;;;;9.20;3.03;;;;;;;12.74;81.63;102556.16;5050842;28;20025;-71
2023/10/04 06:42:47;;;;;;;8.65;3.38;;;;;;;12.74;81.47;102557.03;5044372;28;20040;-71
2023/10/04 06:45:13;;;;;;;9.90;3.05;;;;;;;12.79;81.00;102559.59;5045231;28;20033;-71
2023/10/04 06:47:45;;;;;;;12.18;3.25;;;;;;;12.93;81.03;102560.16;5050636;28;20025;-71
2023/10/04 06:50:18;;;;;;;9.90;2.80;;;;;;;12.92;80.89;102561.06;5042293;28;20017;-71
2023/10/04 06:52:48;;;;;;;12.80;2.97;;;;;;;13.02;80.36;102557.28;5044959;28;20163;-71
2023/10/04 06:55:15;;;;;;;11.13;3.10;;;;;;;13.03;80.33;102567.00;5038460;28;20030;-71
2023/10/04 06:57:41;;;;;;;10.18;3.25;;;;;;;13.06;80.70;102565.19;5036796;28;20102;-71
2023/10/04 07:00:14;;;;;;;6.53;2.83;;;;;;;13.07;80.37;102558.97;5042659;28;20032;-71
2023/10/04 07:02:44;;;;;;;10.07;2.92;;;;;;;13.17;79.99;102566.66;5044238;28;20115;-71
2023/10/04 07:05:16;;;;;;;8.50;3.03;;;;;;;13.21;80.03;102568.34;5035263;28;20444;-71
2023/10/04 07:07:43;;;;;;;10.63;3.10;;;;;;;13.28;79.86;102566.44;5041221;28;20047;-71
2023/10/04 07:10:09;;;;;;;10.27;3.30;;;;;;;13.34;80.28;102558.34;5019676;28;20036;-71
2023/10/04 07:12:34;;;;;;;10.32;3.25;;;;;;;13.40;79.98;102565.28;5039494;28;20491;-71
2023/10/04 07:15:00;;;;;;;12.38;4.07;;;;;;;13.43;79.83;102570.50;5036251;28;20029;-69
2023/10/04 07:17:29;;;;;;;11.35;3.13;;;;;;;13.44;79.66;102570.50;5036314;28;20409;-71
2023/10/04 07:19:57;;;;;;;8.38;2.95;;;;;;;13.50;79.50;102574.78;5042713;28;20035;-71
2023/10/04 07:22:29;;;;;;;11.30;3.05;;;;;;;13.64;79.47;102562.00;5043540;28;20538;-71
2023/10/04 07:24:54;;;;;;;10.63;3.40;;;;;;;13.76;79.63;102561.72;5038002;28;20111;-71
2023/10/04 07:27:20;;;;;;;7.15;2.92;;;;;;;13.81;78.87;102566.03;5042577;28;20499;-71
2023/10/04 07:29:45;;;;;;;8.90;3.08;;;;;;;13.95;78.61;102575.41;5038370;28;20022;-71
2023/10/04 07:32:11;;;;;;;10.63;3.20;;;;;;;13.97;78.28;102570.91;5045651;28;20475;-71
2023/10/04 07:34:40;;;;;;;10.50;3.05;;;;;;;14.00;78.17;102570.81;5037355;28;20037;-71
2023/10/04 07:37:05;;;;;;;13.15;3.28;;;;;;;14.23;78.05;102577.31;5050198;28;20061;-71
2023/10/04 07:39:32;;;;;;;10.85;3.88;;;;;;;14.36;78.03;102572.50;5040062;28;20599;-70
2023/10/04 07:41:57;;;;;;;9.02;3.20;;;;;;;14.52;76.86;102580.03;5046623;28;20120;-70
2023/10/04 07:44:24;;;;;;;8.30;2.90;;;;;;;14.70;76.33;102575.97;5049502;28;20120;-69
2023/10/04 07:46:50;;;;;;;9.30;3.38;;;;;;;14.84;75.70;102591.53;5035425;28;20029;-70
2023/10/04 07:49:16;;;;;;;10.40;3.30;;;;;;;15.08;75.18;102587.25;5047940;28;20029;-70
2023/10/04 07:51:42;;;;;;;9.23;3.38;;;;;;;15.25;74.04;102592.06;5044999;28;20094;-69
2023/10/04 07:54:08;;;;;;;11.00;3.35;;;;;;;15.31;73.89;102591.88;5035775;28;20043;-69
2023/10/04 07:56:34;;;;;;;13.07;3.95;;;;;;;15.52;73.09;102596.47;5042529;28;20498;-69
2023/10/04 07:59:01;;;;;;;9.73;2.88;;;;;;;15.74;72.77;102595.81;5036152;28;20048;-72
2023/10/04 08:01:26;;;;;;;8.05;3.00;;;;;;;16.03;71.35;102602.81;5042534;28;20060;-69
2023/10/04 08:03:52;;;;;;;9.77;3.38;;;;;;;15.92;72.00;102605.84;5041415;28;20041;-71
2023/10/04 08:06:18;;;;;;;8.02;3.20;;;;;;;16.20;71.19;102605.75;5046213;28;20033;-69
2023/10/04 08:08:45;;;;;;;9.85;2.65;;;;;;;16.46;70.02;102607.50;5041810;28;20045;-70
2023/10/04 08:11:11;;;;;;;9.80;2.97;;;;;;;16.53;69.97;102603.66;5038586;28;20025;-69
2023/10/04 08:13:38;;;;;;;9.65;3.33;;;;;;;16.74;68.75;102603.81;5049675;28;20063;-70
2023/10/04 08:16:04;;;;;;;10.93;3.17;;;;;;;16.55;68.93;102601.81;5052976;28;20096;-70
2023/10/04 08:18:30;;;;;;;9.85;4.22;;;;;;;16.59;69.41;102603.44;5036868;28;20048;-70
2023/10/04 08:20:55;;;;;;;7.07;2.90;;;;;;;16.44;69.87;102605.81;5045808;28;20471;-70
2023/10/04 08:23:21;;;;;;;11.38;3.50;;;;;;;16.48;69.64;102605.63;5058818;28;20286;-69
2023/10/04 08:25:49;;;;;;;10.57;3.50;;;;;;;16.46;69.52;102609.28;5035731;28;20058;-69
2023/10/04 08:28:15;;;;;;;11.35;3.15;;;;;;;16.33;70.10;102612.41;5037989;28;20031;-69
2023/10/04 08:30:40;;;;;;;9.18;3.03;;;;;;;16.37;70.23;102620.28;5045784;28;20021;-69
2023/10/04 08:33:07;;;;;;;11.82;3.90;;;;;;;16.50;69.81;102618.91;5045792;28;20029;-70
2023/10/04 08:35:39;;;;;;;9.57;3.20;;;;;;;16.77;69.56;102617.94;5039522;28;20021;-69
2023/10/04 08:38:05;;;;;;;13.63;3.58;;;;;;;16.93;68.63;102618.25;5040219;28;20021;-69
2023/10/04 08:40:31;;;;;;;8.40;3.03;;;;;;;17.19;67.66;102619.00;5041737;28;20316;-69
2023/10/04 08:42:58;;;;;;;9.52;2.97;;;;;;;17.51;66.40;102625.75;5036095;28;20030;-70
2023/10/04 08:45:27;;;;;;;7.30;2.67;;;;;;;17.90;64.87;102625.03;5043286;28;20384;-69
2023/10/04 08:47:57;;;;;;;10.23;3.20;;;;;;;18.01;64.21;102628.16;5043642;28;20059;-70
2023/10/04 08:50:36;;;;;;;11.10;3.45;;;;;;;17.93;64.98;102628.47;5046247;28;20017;-71
2023/10/04 08:53:08;;;;;;;10.98;2.83;;;;;;;18.35;63.35;102630.22;5043137;28;20380;-70
2023/10/04 08:55:41;;;;;;;10.25;3.08;;;;;;;18.58;62.45;102631.88;5037586;28;20496;-69
2023/10/04 08:58:07;;;;;;;15.20;3.13;;;;;;;18.48;62.85;102630.53;5039404;28;20051;-70
2023/10/04 09:00:35;;;;;;;7.85;2.60;;;;;;;18.54;62.57;102632.94;5038745;28;20036;-68
2023/10/04 09:03:04;;;;;;;11.30;3.80;;;;;;;18.66;62.56;102631.53;5041579;28;20879;-69
2023/10/04 09:05:31;;;;;;;5.53;2.50;;;;;;;19.00;61.89;102630.88;5044366;28;20052;-70
2023/10/04 09:07:57;;;;;;;12.02;3.42;;;;;;;19.34;60.74;102624.75;5041174;28;20036;-70
2023/10/04 09:10:23;;;;;;;14.98;3.53;;;;;;;19.47;60.29;102635.75;5044739;28;20439;-70
2023/10/04 09:12:49;;;;;;;9.05;2.83;;;;;;;19.44;60.22;102641.25;5042513;28;20523;-70
2023/10/04 09:15:14;;;;;;;8.30;3.35;;;;;;;19.48;59.52;102634.81;5041307;28;20021;-69
2023/10/04 09:17:47;;;;;;;13.27;3.42;;;;;;;19.58;60.83;102636.06;5045832;28;20056;-70
2023/10/04 09:20:16;;;;;;;7.00;3.00;;;;;;;19.74;58.70;102637.09;5041256;28;20029;-70
2023/10/04 09:22:41;;;;;;;6.85;3.30;;;;;;;19.97;59.25;102633.25;5038808;28;20388;-70
2023/10/04 09:25:07;;;;;;;12.45;2.80;;;;;;;20.15;57.02;102625.22;5041102;28;20029;-71
2023/10/04 09:27:32;;;;;;;13.82;3.78;;;;;;;20.21;57.89;102622.19;5044765;28;20037;-70
2023/10/04 09:29:59;;;;;;;8.45;2.83;;;;;;;20.67;55.68;102623.34;5041699;28;20033;-70
2023/10/04 09:32:40;;;;;;;13.68;3.30;;;;;;;21.23;55.78;102610.38;5049831;28;20428;-71
2023/10/04 09:35:05;;;;;;;10.15;3.30;;;;;;;21.47;54.66;102617.06;5041511;28;20055;-71
2023/10/04 09:37:31;;;;;;;6.57;3.45;;;;;;;21.57;54.53;102612.88;5044946;28;20033;-71
2023/10/04 09:40:11;;;;;;;9.00;3.00;;;;;;;22.25;53.05;102623.22;5036502;28;20042;-70
2023/10/04 09:42:46;;;;;;;6.90;2.83;;;;;;;22.15;52.01;102622.06;5043114;28;20044;-70
2023/10/04 09:45:12;;;;;;;9.18;3.45;;;;;;;21.70;51.55;102625.63;5042117;28;20511;-71
2023/10/04 09:47:38;;;;;;;9.57;2.95;;;;;;;21.98;51.89;102624.84;5052579;28;20127;-71
2023/10/04 09:50:13;;;;;;;8.23;2.60;;;;;;;21.78;51.21;102623.34;5045878;28;20040;-71
2023/10/04 09:52:38;;;;;;;9.63;3.53;;;;;;;20.95;53.76;102620.00;5034082;28;20090;-71
2023/10/04 09:55:08;;;;;;;7.32;2.80;;;;;;;20.72;55.34;102621.25;5040793;28;20021;-71
2023/10/04 09:57:36;;;;;;;10.35;3.05;;;;;;;20.61;55.11;102616.47;5038020;28;20041;-72
2023/10/04 10:00:05;;;;;;;9.43;3.03;;;;;;;20.93;55.04;102615.63;5034586;28;20036;-71
2023/10/04 10:02:36;;;;;;;9.27;2.75;;;;;;;20.87;54.46;102612.34;5039212;28;20028;-71
2023/10/04 10:05:06;;;;;;;10.90;3.05;;;;;;;21.06;53.94;102612.19;5034214;28;20108;-71
2023/10/04 10:07:33;;;;;;;9.15;2.58;;;;;;;21.28;53.41;102621.72;5034799;28;20041;-69
2023/10/04 10:10:16;;;;;;;11.40;2.92;;;;;;;21.17;53.85;102632.22;5041438;28;20033;-72
2023/10/04 10:12:43;;;;;;;9.20;3.67;;;;;;;21.35;53.18;102632.06;5049964;28;20082;-72
2023/10/04 10:15:11;;;;;;;7.25;2.55;;;;;;;21.34;52.26;102640.25;5034640;28;20112;-72
2023/10/04 10:17:38;;;;;;;11.45;3.13;;;;;;;20.54;54.92;102633.88;5035111;28;20029;-72
2023/10/04 10:20:05;;;;;;;10.55;3.30;;;;;;;19.88;55.85;102639.97;5043745;28;20059;-72
2023/10/04 10:22:32;;;;;;;8.82;3.60;;;;;;;20.01;56.16;102639.34;5049615;28;20025;-72
2023/10/04 10:24:57;;;;;;;8.23;3.15;;;;;;;20.61;54.64;102631.69;5041071;28;20023;-71
2023/10/04 10:27:28;;;;;;;8.63;3.03;;;;;;;20.85;55.21;102640.28;5038002;28;20037;-72
2023/10/04 10:29:57;;;;;;;11.13;3.33;;;;;;;21.00;53.37;102625.13;5043511;28;20087;-72
2023/10/04 10:32:23;;;;;;;7.63;2.80;;;;;;;20.78;53.25;102614.66;5045221;28;20036;-72
2023/10/04 10:34:58;;;;;;;8.52;3.00;;;;;;;20.62;54.21;102631.63;5048130;28;20073;-72
2023/10/04 10:37:24;;;;;;;12.40;3.65;;;;;;;20.68;53.32;102633.13;5038212;28;20045;-72
2023/10/04 10:39:55;;;;;;;10.30;2.90;;;;;;;20.63;53.81;102627.13;5040262;28;20021;-71
2023/10/04 10:42:20;;;;;;;9.73;2.78;;;;;;;20.80;53.19;102624.41;5039213;28;20043;-72
2023/10/04 10:44:48;;;;;;;8.80;3.28;;;;;;;21.79;50.60;102623.25;5041357;28;20025;-71
2023/10/04 10:47:25;;;;;;;12.38;3.20;;;;;;;22.98;49.52;102624.97;5038984;28;20025;-73
2023/10/04 10:49:58;;;;;;;8.15;2.75;;;;;;;23.56;46.29;102626.56;5032486;28;20033;-74
2023/10/04 10:52:38;;;;;;;32.80;5.28;;;;;;;23.36;46.90;102622.47;5039989;28;20116;-74
2023/10/04 10:55:06;;;;;;;9.50;3.45;;;;;;;23.33;46.57;102623.56;5016847;28;20029;-74
2023/10/04 10:57:32;;;;;;;9.93;2.95;;;;;;;22.82;47.13;102612.44;5038337;28;20095;-73
2023/10/04 11:00:13;;;;;;;9.98;2.65;;;;;;;23.10;45.89;102616.09;5044461;28;20041;-74
2023/10/04 11:02:42;;;;;;;8.03;3.10;;;;;;;23.24;45.60;102610.66;5038806;28;20032;-73
2023/10/04 11:05:09;;;;;;;9.70;3.28;;;;;;;22.87;45.53;102601.38;5035865;28;20041;-75
2023/10/04 11:07:34;;;;;;;8.23;2.95;;;;;;;22.82;45.53;102607.06;5039266;28;20049;-72
2023/10/04 11:09:59;;;;;;;9.27;3.15;;;;;;;22.92;46.54;102602.81;5042054;28;20388;-72
2023/10/04 11:12:25;;;;;;;7.35;2.80;;;;;;;23.11;44.82;102598.94;5045461;28;20021;-73
2023/10/04 11:14:52;;;;;;;8.77;3.33;;;;;;;23.08;45.71;102591.94;5048378;28;20059;-73
2023/10/04 11:17:20;;;;;;;9.25;3.08;;;;;;;23.39;43.76;102587.19;5042918;28;20024;-73
2023/10/04 11:19:45;;;;;;;8.60;3.05;;;;;;;23.35;44.94;102581.13;5044088;28;21043;-72
2023/10/04 11:22:12;;;;;;;8.30;3.17;;;;;;;23.36;43.02;102584.69;5037042;28;20033;-72
2023/10/04 11:24:39;;;;;;;11.85;3.22;;;;;;;23.40;44.60;102587.06;5049220;28;20025;-74
2023/10/04 11:27:06;;;;;;;11.35;3.92;;;;;;;22.98;43.95;102585.38;5047961;28;20024;-76
2023/10/04 11:29:33;;;;;;;11.35;3.92;;;;;;;22.53;45.87;102586.47;5043245;28;20021;-74
2023/10/04 11:31:58;;;;;;;16.65;4.32;;;;;;;22.55;46.15;102582.69;5041579;28;20037;-73